September 25, 2022

Time Code Weather Temp. Visibility Ceiling Wind METAR/SPECI
18:30
M
13 °C 10 km+ 1,600 ft 250° 250° 15 kt METAR EISG 251730Z 25015KT 9999 OVC016 13/13 Q1013
18:00
M
14 °C 5 km 1,900 ft 260° 260° 16 kt METAR EISG 251700Z 26016KT 5000 BKN019 OVC025 14/12 Q1015
17:30
V
14 °C 10 km+ 3,100 ft 250° 250° 15 kt METAR EISG 251630Z 25015KT 9999 SCT024 OVC031 14/11 Q1015
17:00
M
14 °C 10 km+ 2,400 ft 250° 250° 14 kt METAR EISG 251600Z 25014KT 9999 BKN024 OVC031 14/11 Q1016
16:30
M
14 °C 10 km+ 2,500 ft 260° 260° 17 kt METAR EISG 251530Z 26017KT 9999 BKN025 OVC032 14/11 Q1016
16:00
V
14 °C 10 km+ 3,700 ft 260° 260° 14 kt METAR EISG 251500Z 26014KT 9999 BKN037 14/11 Q1017
15:30
V
14 °C 10 km+ 3,400 ft 260° 260° 12 kt METAR EISG 251430Z 26012KT 9999 FEW026 OVC034 14/13 Q1018
15:00
M
13 °C 5 km 2,200 ft 270° 270° 19 kt METAR EISG 251400Z 27019KT 5000 -RA FEW012 BKN022 OVC045 13/13 Q1018
14:30
M
14 °C 10 km+ 2,500 ft 260° 260° 14 kt METAR EISG 251330Z 26014KT 9999 BKN025 OVC031 14/12 Q1019
14:00
V
14 °C 10 km+ 3,000 ft 280° 280° 17 kt METAR EISG 251300Z 28017KT 9999 SCT021 OVC030 14/11 Q1019
13:30
M
14 °C 10 km+ 2,800 ft 270° 270° 11 kt METAR EISG 251230Z 27011KT 9999 FEW018 OVC028 14/14 Q1020
13:00
M
13 °C 5 km 1,500 ft 270° 270° 11 kt METAR EISG 251200Z 27011KT 5000 SCT010 BKN015 OVC031 13/13 Q1020
12:30
I
13 °C 4.8 km 1,200 ft 260° 260° 11 kt METAR EISG 251130Z 26011KT 4800 FEW007 BKN012 OVC017 13/13 Q1020
12:00
M
13 °C 10 km+ 1,200 ft 250° 250° 10 kt METAR EISG 251100Z 25010KT 9999 OVC012 13/13 Q1021
11:30
M
13 °C 10 km+ 2,200 ft 250° 250° 11 kt METAR EISG 251030Z 25011KT 9999 BKN022 OVC028 13/13 Q1021
11:00
V
13 °C 10 km+ 3,000 ft 260° 260° 9 kt METAR EISG 251000Z 26009KT 9999 FEW012 BKN030 OVC035 13/13 Q1021
10:30
M
12 °C 10 km+ 1,500 ft 250° 250° 9 kt METAR EISG 250930Z 25009KT 9999 BKN015 BKN022 OVC036 12/12 Q1022
10:00
M
12 °C 10 km+ 2,300 ft 240° 240° 9 kt METAR EISG 250900Z 24009KT 9999 FEW008 BKN023 OVC036 12/12 Q1022
09:00
M
12 °C 7 km 2,100 ft 250° 250° 10 kt METAR EISG 250800Z 25010KT 7000 FEW012 BKN021 OVC028 12/12 Q1023
08:30
V
12 °C 10 km+ 3,500 ft 250° 250° 9 kt METAR EISG 250730Z 25009KT 9999 SCT026 OVC035 12/11 Q1023
08:00
V
12 °C 10 km+ 3,600 ft 250° 250° 8 kt METAR EISG 250700Z 25008KT 9999 OVC036 12/10 Q1023
07:30
V
12 °C 10 km+ 3,700 ft 250° 250° 8 kt METAR EISG 250630Z 25008KT 9999 FEW026 OVC037 12/10 Q1023

September 24, 2022

Time Code Weather Temp. Visibility Ceiling Wind METAR/SPECI
19:30
V
13 °C 10 km+ - 360° 360° 8 kt METAR EISG 241830Z 36008KT CAVOK 13/07 Q1026
19:00
V
13 °C 10 km+ - 360° 360° 11 kt METAR EISG 241800Z 36011KT CAVOK 13/07 Q1026
18:30
V
14 °C 10 km+ - 360° 360° 10 kt METAR EISG 241730Z 36010KT CAVOK 14/08 Q1025
18:00
V
14 °C 10 km+ - 350° 350° 11 kt METAR EISG 241700Z 35011KT CAVOK 14/08 Q1025
17:30
V
14 °C 10 km+ 5,000 ft 350° 350° 10 kt METAR EISG 241630Z 35010KT 9999 FEW032 OVC050 14/08 Q1025
17:00
V
14 °C 10 km+ - 340° 340° 11 kt METAR EISG 241600Z 34011KT CAVOK 14/08 Q1025
16:30
V
15 °C 10 km+ - 340° 340° 12 kt METAR EISG 241530Z 34012KT CAVOK 15/08 Q1025
16:00
V
15 °C 10 km+ - 330° 330° 11 kt METAR EISG 241500Z 33011KT 9999 FEW033 15/09 Q1025
15:30
V
14 °C 10 km+ - 330° 330° 12 kt METAR EISG 241430Z 33012KT CAVOK 14/10 Q1025
15:00
V
14 °C 10 km+ 6,000 ft 330° 330° 10 kt METAR EISG 241400Z 33010KT 9999 SCT029 OVC060 14/09 Q1025
14:30
V
14 °C 10 km+ 5,500 ft 020° 020° 10 kt METAR EISG 241330Z 02010KT 350V050 9999 FEW026 OVC055 14/09 Q1025
14:00
M
14 °C 10 km+ 2,900 ft 030° 030° 8 kt METAR EISG 241300Z 03008KT 9999 SCT024 BKN029 OVC055 14/10 Q1025
13:30
V
14 °C 10 km+ - 330° 330° 8 kt METAR EISG 241230Z 33008KT CAVOK 14/10 Q1025
13:00
V
13 °C 10 km+ 5,500 ft 350° 350° 8 kt METAR EISG 241200Z 35008KT 9999 FEW041 SCT048 BKN055 13/10 Q1025
12:30
V
13 °C 9 km 3,300 ft 340° 340° 8 kt METAR EISG 241130Z 34008KT 9000 FEW009 SCT016 BKN033 13/12 Q1025
12:00
I
12 °C 4.6 km 2,400 ft 030° 030° 11 kt METAR EISG 241100Z 03011KT 4600 -RA SCT015 BKN024 OVC034 12/12 Q1025
11:30
V
13 °C 10 km+ 5,500 ft 010° 010° 6 kt METAR EISG 241030Z 01006KT 9999 FEW043 OVC055 13/10 Q1025
11:00
V
13 °C 10 km+ 5,500 ft 010° 010° 7 kt METAR EISG 241000Z 01007KT 9999 FEW023 SCT030 OVC055 13/10 Q1024
10:30
V
13 °C 10 km+ 3,600 ft 010° 010° 8 kt METAR EISG 240930Z 01008KT 9999 FEW029 BKN036 BKN049 13/10 Q1024
10:00
M
11 °C 10 km+ 2,800 ft 040° 040° 10 kt METAR EISG 240900Z 04010KT 9999 FEW012 BKN028 OVC050 11/11 Q1024
09:30
V
13 °C 10 km+ 5,500 ft 350° 350° 10 kt METAR EISG 240830Z 35010KT 9999 FEW030 OVC055 13/09 Q1024
09:00
V
13 °C 10 km+ - 360° 360° 9 kt METAR EISG 240800Z 36009KT CAVOK 13/09 Q1023
08:30
V
13 °C 10 km+ - 340° 340° 9 kt METAR EISG 240730Z 34009KT CAVOK 13/08 Q1023
08:00
V
13 °C 10 km+ - 350° 350° 10 kt METAR EISG 240700Z 35010KT CAVOK 13/08 Q1023
Older data

We and third parties follow your internet behavior on our website with cookies. If you continue, we assume you agree with our cookie policy. Learn more